sensor_id;sensor_type;location;lat;lon;timestamp;pressure;altitude;pressure_sealevel;temperature;humidity
7990;BME280;4040;42.848;23.034;2024-02-16T00:02:08;95495.50;;;-0.43;100.00
7990;BME280;4040;42.848;23.034;2024-02-16T00:04:35;95502.19;;;-0.46;100.00
7990;BME280;4040;42.848;23.034;2024-02-16T00:07:02;95500.03;;;-0.52;100.00
7990;BME280;4040;42.848;23.034;2024-02-16T00:09:30;95502.22;;;-0.54;100.00
7990;BME280;4040;42.848;23.034;2024-02-16T00:12:00;95505.34;;;-0.61;100.00
7990;BME280;4040;42.848;23.034;2024-02-16T00:14:28;95511.25;;;-0.64;100.00
7990;BME280;4040;42.848;23.034;2024-02-16T00:16:55;95504.25;;;-0.68;100.00
7990;BME280;4040;42.848;23.034;2024-02-16T00:19:22;95506.44;;;-0.70;100.00
7990;BME280;4040;42.848;23.034;2024-02-16T00:21:51;95507.69;;;-0.76;100.00
7990;BME280;4040;42.848;23.034;2024-02-16T00:24:18;95509.25;;;-0.75;100.00
7990;BME280;4040;42.848;23.034;2024-02-16T00:26:46;95513.59;;;-0.79;100.00
7990;BME280;4040;42.848;23.034;2024-02-16T00:29:14;95508.94;;;-0.82;100.00
7990;BME280;4040;42.848;23.034;2024-02-16T00:31:42;95512.66;;;-0.83;100.00
7990;BME280;4040;42.848;23.034;2024-02-16T00:34:10;95506.28;;;-0.82;100.00
7990;BME280;4040;42.848;23.034;2024-02-16T00:36:37;95497.13;;;-0.93;100.00
7990;BME280;4040;42.848;23.034;2024-02-16T00:39:04;95498.66;;;-0.92;100.00
7990;BME280;4040;42.848;23.034;2024-02-16T00:41:32;95505.97;;;-0.89;100.00
7990;BME280;4040;42.848;23.034;2024-02-16T00:43:59;95502.72;;;-0.86;100.00
7990;BME280;4040;42.848;23.034;2024-02-16T00:46:29;95501.16;;;-0.87;100.00
7990;BME280;4040;42.848;23.034;2024-02-16T00:48:57;95508.00;;;-0.86;100.00
7990;BME280;4040;42.848;23.034;2024-02-16T00:51:25;95499.44;;;-0.83;100.00
7990;BME280;4040;42.848;23.034;2024-02-16T00:53:52;95496.00;;;-0.84;100.00
7990;BME280;4040;42.848;23.034;2024-02-16T00:56:19;95497.25;;;-0.81;100.00
7990;BME280;4040;42.848;23.034;2024-02-16T00:58:47;95490.88;;;-0.80;100.00
7990;BME280;4040;42.848;23.034;2024-02-16T01:01:14;95490.13;;;-0.81;100.00
7990;BME280;4040;42.848;23.034;2024-02-16T01:03:43;95496.47;;;-0.73;100.00
7990;BME280;4040;42.848;23.034;2024-02-16T01:06:11;95488.38;;;-0.68;100.00
7990;BME280;4040;42.848;23.034;2024-02-16T01:08:38;95491.63;;;-0.63;100.00
7990;BME280;4040;42.848;23.034;2024-02-16T01:11:06;95491.63;;;-0.63;100.00
7990;BME280;4040;42.848;23.034;2024-02-16T01:13:33;95476.72;;;-0.76;100.00
7990;BME280;4040;42.848;23.034;2024-02-16T01:16:02;95488.84;;;-0.75;100.00
7990;BME280;4040;42.848;23.034;2024-02-16T01:18:30;95479.22;;;-0.79;100.00
7990;BME280;4040;42.848;23.034;2024-02-16T01:21:00;95465.72;;;-0.86;100.00
7990;BME280;4040;42.848;23.034;2024-02-16T01:23:29;95486.19;;;-0.75;100.00
7990;BME280;4040;42.848;23.034;2024-02-16T01:25:56;95486.19;;;-0.75;100.00
7990;BME280;4040;42.848;23.034;2024-02-16T01:28:24;95480.63;;;-0.73;100.00
7990;BME280;4040;42.848;23.034;2024-02-16T01:30:51;95480.16;;;-0.75;100.00
7990;BME280;4040;42.848;23.034;2024-02-16T01:33:19;95483.41;;;-0.78;100.00
7990;BME280;4040;42.848;23.034;2024-02-16T01:35:46;95483.88;;;-0.85;100.00
7990;BME280;4040;42.848;23.034;2024-02-16T01:38:15;95479.38;;;-0.84;100.00
7990;BME280;4040;42.848;23.034;2024-02-16T01:40:43;95473.31;;;-0.85;100.00
7990;BME280;4040;42.848;23.034;2024-02-16T01:43:10;95460.09;;;-0.93;100.00
7990;BME280;4040;42.848;23.034;2024-02-16T01:45:38;95461.63;;;-0.84;100.00
7990;BME280;4040;42.848;23.034;2024-02-16T01:48:06;95438.19;;;-1.02;100.00
7990;BME280;4040;42.848;23.034;2024-02-16T01:50:33;95468.34;;;-0.86;100.00
7990;BME280;4040;42.848;23.034;2024-02-16T01:53:01;95465.06;;;-0.83;100.00
7990;BME280;4040;42.848;23.034;2024-02-16T01:55:30;95462.72;;;-0.85;100.00
7990;BME280;4040;42.848;23.034;2024-02-16T01:57:58;95439.91;;;-1.06;100.00
7990;BME280;4040;42.848;23.034;2024-02-16T02:00:26;95454.06;;;-0.94;100.00
7990;BME280;4040;42.848;23.034;2024-02-16T02:02:54;95470.81;;;-0.81;100.00
7990;BME280;4040;42.848;23.034;2024-02-16T02:05:23;95469.28;;;-0.82;100.00
7990;BME280;4040;42.848;23.034;2024-02-16T02:07:50;95466.94;;;-0.75;100.00
7990;BME280;4040;42.848;23.034;2024-02-16T02:10:18;95474.41;;;-0.77;100.00
7990;BME280;4040;42.848;23.034;2024-02-16T02:12:47;95467.53;;;-0.78;100.00
7990;BME280;4040;42.848;23.034;2024-02-16T02:15:15;95475.19;;;-0.85;100.00
7990;BME280;4040;42.848;23.034;2024-02-16T02:17:42;95473.03;;;-0.92;100.00
7990;BME280;4040;42.848;23.034;2024-02-16T02:20:10;95476.91;;;-0.98;100.00
7990;BME280;4040;42.848;23.034;2024-02-16T02:22:39;95471.63;;;-1.06;100.00
7990;BME280;4040;42.848;23.034;2024-02-16T02:25:07;95479.09;;;-1.08;100.00
7990;BME280;4040;42.848;23.034;2024-02-16T02:27:36;95466.31;;;-1.15;100.00
7990;BME280;4040;42.848;23.034;2024-02-16T02:30:05;95468.22;;;-1.15;100.00
7990;BME280;4040;42.848;23.034;2024-02-16T02:32:33;95392.53;;;-1.54;100.00
7990;BME280;4040;42.848;23.034;2024-02-16T02:35:02;95459.19;;;-1.14;100.00
7990;BME280;4040;42.848;23.034;2024-02-16T02:37:29;95469.44;;;-1.04;100.00
7990;BME280;4040;42.848;23.034;2024-02-16T02:39:58;95468.22;;;-0.98;100.00
7990;BME280;4040;42.848;23.034;2024-02-16T02:42:26;95468.22;;;-0.98;100.00
7990;BME280;4040;42.848;23.034;2024-02-16T02:44:54;95476.91;;;-0.98;100.00
7990;BME280;4040;42.848;23.034;2024-02-16T02:47:21;95471.91;;;-0.99;100.00
7990;BME280;4040;42.848;23.034;2024-02-16T02:49:49;95471.78;;;-1.03;100.00
7990;BME280;4040;42.848;23.034;2024-02-16T02:52:16;95467.91;;;-1.05;100.00
7990;BME280;4040;42.848;23.034;2024-02-16T02:54:44;95470.06;;;-1.07;100.00
7990;BME280;4040;42.848;23.034;2024-02-16T02:57:13;95464.16;;;-1.04;100.00
7990;BME280;4040;42.848;23.034;2024-02-16T02:59:41;95461.34;;;-1.08;100.00
7990;BME280;4040;42.848;23.034;2024-02-16T03:02:08;95467.91;;;-1.05;100.00
7990;BME280;4040;42.848;23.034;2024-02-16T03:04:36;95462.63;;;-1.05;100.00
7990;BME280;4040;42.848;23.034;2024-02-16T03:07:04;95464.94;;;-1.04;100.00
7990;BME280;4040;42.848;23.034;2024-02-16T03:09:31;95466.81;;;-1.04;100.00
7990;BME280;4040;42.848;23.034;2024-02-16T03:11:58;95465.72;;;-1.03;100.00
7990;BME280;4040;42.848;23.034;2024-02-16T03:14:29;95469.00;;;-1.06;100.00
7990;BME280;4040;42.848;23.034;2024-02-16T03:16:56;95467.91;;;-1.05;100.00
7990;BME280;4040;42.848;23.034;2024-02-16T03:19:24;95478.31;;;-1.09;100.00
7990;BME280;4040;42.848;23.034;2024-02-16T03:21:52;95480.78;;;-1.12;100.00
7990;BME280;4040;42.848;23.034;2024-02-16T03:24:19;95471.31;;;-1.13;100.00
7990;BME280;4040;42.848;23.034;2024-02-16T03:26:47;95471.94;;;-1.16;100.00
7990;BME280;4040;42.848;23.034;2024-02-16T03:29:14;95469.94;;;-1.19;100.00
7990;BME280;4040;42.848;23.034;2024-02-16T03:31:42;95461.69;;;-1.26;100.00
7990;BME280;4040;42.848;23.034;2024-02-16T03:34:10;95472.25;;;-1.26;100.00
7990;BME280;4040;42.848;23.034;2024-02-16T03:36:38;95472.25;;;-1.26;100.00
7990;BME280;4040;42.848;23.034;2024-02-16T03:39:05;95467.09;;;-1.31;100.00
7990;BME280;4040;42.848;23.034;2024-02-16T03:41:34;95475.03;;;-1.31;100.00
7990;BME280;4040;42.848;23.034;2024-02-16T03:44:02;95458.88;;;-1.38;100.00
7990;BME280;4040;42.848;23.034;2024-02-16T03:46:29;95469.63;;;-1.35;100.00
7990;BME280;4040;42.848;23.034;2024-02-16T03:48:58;95464.16;;;-1.38;100.00
7990;BME280;4040;42.848;23.034;2024-02-16T03:51:26;95464.16;;;-1.38;100.00
7990;BME280;4040;42.848;23.034;2024-02-16T03:53:53;95457.34;;;-1.39;100.00
7990;BME280;4040;42.848;23.034;2024-02-16T03:56:21;95458.41;;;-1.40;100.00
7990;BME280;4040;42.848;23.034;2024-02-16T03:58:48;95458.56;;;-1.37;100.00
7990;BME280;4040;42.848;23.034;2024-02-16T04:01:15;95456.25;;;-1.38;100.00
7990;BME280;4040;42.848;23.034;2024-02-16T04:03:43;95450.81;;;-1.42;100.00
7990;BME280;4040;42.848;23.034;2024-02-16T04:06:12;95459.34;;;-1.36;100.00
7990;BME280;4040;42.848;23.034;2024-02-16T04:08:39;95465.56;;;-1.32;100.00
7990;BME280;4040;42.848;23.034;2024-02-16T04:11:07;95456.06;;;-1.33;100.00
7990;BME280;4040;42.848;23.034;2024-02-16T04:13:34;95459.19;;;-1.31;100.00
7990;BME280;4040;42.848;23.034;2024-02-16T04:16:02;95469.16;;;-1.28;100.00
7990;BME280;4040;42.848;23.034;2024-02-16T04:18:29;95464.47;;;-1.31;100.00
7990;BME280;4040;42.848;23.034;2024-02-16T04:20:56;95472.09;;;-1.30;100.00
7990;BME280;4040;42.848;23.034;2024-02-16T04:23:25;95468.69;;;-1.30;100.00
7990;BME280;4040;42.848;23.034;2024-02-16T04:25:53;95472.56;;;-1.36;100.00
7990;BME280;4040;42.848;23.034;2024-02-16T04:28:20;95480.47;;;-1.45;100.00
7990;BME280;4040;42.848;23.034;2024-02-16T04:30:48;95464.13;;;-1.55;100.00
7990;BME280;4040;42.848;23.034;2024-02-16T04:33:15;95473.16;;;-1.56;100.00
7990;BME280;4040;42.848;23.034;2024-02-16T04:35:42;95474.38;;;-1.62;100.00
7990;BME280;4040;42.848;23.034;2024-02-16T04:38:12;95472.22;;;-1.60;100.00
7990;BME280;4040;42.848;23.034;2024-02-16T04:40:42;95465.81;;;-1.68;100.00
7990;BME280;4040;42.848;23.034;2024-02-16T04:43:09;95468.78;;;-1.69;100.00
7990;BME280;4040;42.848;23.034;2024-02-16T04:45:36;95472.03;;;-1.72;100.00
7990;BME280;4040;42.848;23.034;2024-02-16T04:48:04;95477.81;;;-1.70;100.00
7990;BME280;4040;42.848;23.034;2024-02-16T04:50:32;95479.03;;;-1.68;100.00
7990;BME280;4040;42.848;23.034;2024-02-16T04:52:59;95475.00;;;-1.65;100.00
7990;BME280;4040;42.848;23.034;2024-02-16T04:55:28;95472.53;;;-1.70;100.00
7990;BME280;4040;42.848;23.034;2024-02-16T04:57:58;95472.19;;;-1.69;100.00
7990;BME280;4040;42.848;23.034;2024-02-16T05:00:25;95484.00;;;-1.66;100.00
7990;BME280;4040;42.848;23.034;2024-02-16T05:02:53;95489.28;;;-1.66;100.00
7990;BME280;4040;42.848;23.034;2024-02-16T05:05:21;95482.47;;;-1.67;100.00
7990;BME280;4040;42.848;23.034;2024-02-16T05:07:48;95482.47;;;-1.67;100.00
7990;BME280;4040;42.848;23.034;2024-02-16T05:10:16;95475.28;;;-1.75;100.00
7990;BME280;4040;42.848;23.034;2024-02-16T05:12:45;95485.72;;;-1.70;100.00
7990;BME280;4040;42.848;23.034;2024-02-16T05:15:14;95486.19;;;-1.68;100.00
7990;BME280;4040;42.848;23.034;2024-02-16T05:17:46;95495.50;;;-1.62;100.00
7990;BME280;4040;42.848;23.034;2024-02-16T05:20:14;95488.06;;;-1.60;100.00
7990;BME280;4040;42.848;23.034;2024-02-16T05:22:42;95482.78;;;-1.60;100.00
7990;BME280;4040;42.848;23.034;2024-02-16T05:25:11;95446.25;;;-1.84;100.00
7990;BME280;4040;42.848;23.034;2024-02-16T05:27:39;95490.56;;;-1.55;100.00
7990;BME280;4040;42.848;23.034;2024-02-16T05:30:09;95492.28;;;-1.51;100.00
7990;BME280;4040;42.848;23.034;2024-02-16T05:32:40;95500.03;;;-1.54;100.00
7990;BME280;4040;42.848;23.034;2024-02-16T05:35:08;95468.78;;;-1.69;100.00
7990;BME280;4040;42.848;23.034;2024-02-16T05:37:38;95491.63;;;-1.56;100.00
7990;BME280;4040;42.848;23.034;2024-02-16T05:40:08;95506.72;;;-1.48;100.00
7990;BME280;4040;42.848;23.034;2024-02-16T05:42:46;95477.19;;;-1.67;100.00
7990;BME280;4040;42.848;23.034;2024-02-16T05:45:14;95510.16;;;-1.39;100.00
7990;BME280;4040;42.848;23.034;2024-02-16T05:47:44;95518.88;;;-1.30;100.00
7990;BME280;4040;42.848;23.034;2024-02-16T05:50:14;95512.66;;;-1.34;100.00
7990;BME280;4040;42.848;23.034;2024-02-16T05:52:42;95519.81;;;-1.26;100.00
7990;BME280;4040;42.848;23.034;2024-02-16T05:55:10;95530.22;;;-1.21;100.00
7990;BME280;4040;42.848;23.034;2024-02-16T05:57:39;95526.03;;;-1.22;100.00
7990;BME280;4040;42.848;23.034;2024-02-16T06:00:08;95527.56;;;-1.21;100.00
7990;BME280;4040;42.848;23.034;2024-02-16T06:02:36;95508.00;;;-1.37;100.00
7990;BME280;4040;42.848;23.034;2024-02-16T06:05:06;95535.66;;;-1.26;100.00
7990;BME280;4040;42.848;23.034;2024-02-16T06:07:35;95532.84;;;-1.21;100.00
7990;BME280;4040;42.848;23.034;2024-02-16T06:10:04;95534.13;;;-0.76;100.00
7990;BME280;4040;42.848;23.034;2024-02-16T06:12:36;95541.84;;;0.17;100.00
7990;BME280;4040;42.848;23.034;2024-02-16T06:15:05;95542.69;;;0.96;100.00
7990;BME280;4040;42.848;23.034;2024-02-16T06:17:32;95561.97;;;1.25;100.00
7990;BME280;4040;42.848;23.034;2024-02-16T06:20:00;95555.69;;;1.83;100.00
7990;BME280;4040;42.848;23.034;2024-02-16T06:22:30;95559.63;;;2.09;100.00
7990;BME280;4040;42.848;23.034;2024-02-16T06:24:58;95561.19;;;2.34;100.00
7990;BME280;4040;42.848;23.034;2024-02-16T06:27:26;95566.56;;;2.58;100.00
7990;BME280;4040;42.848;23.034;2024-02-16T06:29:53;95559.69;;;2.81;100.00
7990;BME280;4040;42.848;23.034;2024-02-16T06:32:21;95551.47;;;2.86;100.00
7990;BME280;4040;42.848;23.034;2024-02-16T06:34:49;95549.16;;;3.63;100.00
7990;BME280;4040;42.848;23.034;2024-02-16T06:37:16;95553.41;;;3.80;100.00
7990;BME280;4040;42.848;23.034;2024-02-16T06:39:45;95543.31;;;4.01;100.00
7990;BME280;4040;42.848;23.034;2024-02-16T06:42:12;95547.50;;;4.14;100.00
7990;BME280;4040;42.848;23.034;2024-02-16T06:44:40;95544.91;;;4.33;100.00
7990;BME280;4040;42.848;23.034;2024-02-16T06:47:07;95548.13;;;4.38;100.00
7990;BME280;4040;42.848;23.034;2024-02-16T06:49:35;95552.13;;;4.79;100.00
7990;BME280;4040;42.848;23.034;2024-02-16T06:52:03;95554.41;;;5.11;100.00
7990;BME280;4040;42.848;23.034;2024-02-16T06:54:31;95550.44;;;5.39;100.00
7990;BME280;4040;42.848;23.034;2024-02-16T06:57:00;95549.22;;;5.90;100.00
7990;BME280;4040;42.848;23.034;2024-02-16T06:59:28;95548.47;;;6.31;100.00
7990;BME280;4040;42.848;23.034;2024-02-16T07:01:55;95527.75;;;6.28;100.00
7990;BME280;4040;42.848;23.034;2024-02-16T07:04:23;95540.63;;;6.90;100.00
7990;BME280;4040;42.848;23.034;2024-02-16T07:06:50;95542.41;;;6.83;100.00
7990;BME280;4040;42.848;23.034;2024-02-16T07:09:18;95528.41;;;7.19;99.31
7990;BME280;4040;42.848;23.034;2024-02-16T07:11:45;95533.75;;;7.19;99.44
7990;BME280;4040;42.848;23.034;2024-02-16T07:14:17;95540.00;;;7.26;98.02
7990;BME280;4040;42.848;23.034;2024-02-16T07:16:45;95513.13;;;7.48;95.77
7990;BME280;4040;42.848;23.034;2024-02-16T07:19:12;95517.31;;;7.46;93.98
7990;BME280;4040;42.848;23.034;2024-02-16T07:21:40;95534.75;;;7.95;93.07
7990;BME280;4040;42.848;23.034;2024-02-16T07:24:07;95530.81;;;8.59;89.38
7990;BME280;4040;42.848;23.034;2024-02-16T07:26:35;95541.03;;;8.90;85.09
7990;BME280;4040;42.848;23.034;2024-02-16T07:29:03;95525.91;;;9.22;83.01
7990;BME280;4040;42.848;23.034;2024-02-16T07:31:34;95540.47;;;9.14;83.39
7990;BME280;4040;42.848;23.034;2024-02-16T07:34:02;95538.56;;;9.86;82.20
7990;BME280;4040;42.848;23.034;2024-02-16T07:36:30;95536.44;;;10.43;81.42
7990;BME280;4040;42.848;23.034;2024-02-16T07:38:58;95529.94;;;11.21;78.17
7990;BME280;4040;42.848;23.034;2024-02-16T07:41:25;95533.66;;;11.76;71.26
7990;BME280;4040;42.848;23.034;2024-02-16T07:43:53;95534.88;;;12.47;66.91
7990;BME280;4040;42.848;23.034;2024-02-16T07:46:21;95525.75;;;14.63;58.59
7990;BME280;4040;42.848;23.034;2024-02-16T07:48:50;95524.75;;;15.48;52.23
7990;BME280;4040;42.848;23.034;2024-02-16T07:51:17;95525.84;;;15.32;51.12
7990;BME280;4040;42.848;23.034;2024-02-16T07:53:45;95526.53;;;15.35;50.87
7990;BME280;4040;42.848;23.034;2024-02-16T07:56:12;95529.56;;;16.93;46.97
7990;BME280;4040;42.848;23.034;2024-02-16T07:58:41;95519.91;;;17.97;43.86
7990;BME280;4040;42.848;23.034;2024-02-16T08:01:09;95516.38;;;18.12;42.65
7990;BME280;4040;42.848;23.034;2024-02-16T08:03:41;95515.19;;;19.17;41.29
7990;BME280;4040;42.848;23.034;2024-02-16T08:06:09;95519.44;;;20.11;39.10
7990;BME280;4040;42.848;23.034;2024-02-16T08:08:37;95516.50;;;21.09;36.88
7990;BME280;4040;42.848;23.034;2024-02-16T08:11:05;95518.13;;;20.03;36.51
7990;BME280;4040;42.848;23.034;2024-02-16T08:13:32;95513.44;;;21.82;34.57
7990;BME280;4040;42.848;23.034;2024-02-16T08:16:00;95516.97;;;21.16;35.22
7990;BME280;4040;42.848;23.034;2024-02-16T08:18:32;95512.81;;;20.21;34.36
7990;BME280;4040;42.848;23.034;2024-02-16T08:21:00;95528.22;;;20.58;34.10
7990;BME280;4040;42.848;23.034;2024-02-16T08:23:29;95521.13;;;20.90;34.35
7990;BME280;4040;42.848;23.034;2024-02-16T08:25:57;95525.88;;;19.36;36.25
7990;BME280;4040;42.848;23.034;2024-02-16T08:28:24;95503.50;;;19.04;35.86
7990;BME280;4040;42.848;23.034;2024-02-16T08:30:52;95519.88;;;19.97;35.26
7990;BME280;4040;42.848;23.034;2024-02-16T08:33:19;95523.50;;;20.06;34.26
7990;BME280;4040;42.848;23.034;2024-02-16T08:35:47;95520.81;;;20.37;34.74
7990;BME280;4040;42.848;23.034;2024-02-16T08:38:16;95523.59;;;20.46;34.14
7990;BME280;4040;42.848;23.034;2024-02-16T08:40:45;95521.28;;;20.87;34.14
7990;BME280;4040;42.848;23.034;2024-02-16T08:43:13;95466.94;;;22.42;nan
7990;BME280;4040;42.848;23.034;2024-02-16T08:45:41;95515.88;;;23.67;30.15
7990;BME280;4040;42.848;23.034;2024-02-16T08:48:09;95520.22;;;25.08;29.07
7990;BME280;4040;42.848;23.034;2024-02-16T08:50:36;95516.38;;;25.00;28.76
7990;BME280;4040;42.848;23.034;2024-02-16T08:53:04;95525.41;;;24.19;28.50
7990;BME280;4040;42.848;23.034;2024-02-16T08:55:31;95515.03;;;23.20;29.12
7990;BME280;4040;42.848;23.034;2024-02-16T08:58:00;95515.53;;;23.10;29.23
7990;BME280;4040;42.848;23.034;2024-02-16T09:00:27;95515.41;;;23.92;28.39
7990;BME280;4040;42.848;23.034;2024-02-16T09:02:55;95518.25;;;23.98;28.36
7990;BME280;4040;42.848;23.034;2024-02-16T09:05:23;95520.50;;;25.59;26.67
7990;BME280;4040;42.848;23.034;2024-02-16T09:07:51;95526.53;;;25.23;27.34
7990;BME280;4040;42.848;23.034;2024-02-16T09:10:18;95520.41;;;25.88;26.49
7990;BME280;4040;42.848;23.034;2024-02-16T09:12:46;95522.69;;;26.29;26.87
7990;BME280;4040;42.848;23.034;2024-02-16T09:15:15;95523.75;;;24.50;26.79
7990;BME280;4040;42.848;23.034;2024-02-16T09:17:43;95523.50;;;24.92;26.94
7990;BME280;4040;42.848;23.034;2024-02-16T09:20:11;95519.22;;;24.62;26.69
7990;BME280;4040;42.848;23.034;2024-02-16T09:22:40;95540.06;;;23.31;28.48
7990;BME280;4040;42.848;23.034;2024-02-16T09:25:08;95526.63;;;23.24;27.96
7990;BME280;4040;42.848;23.034;2024-02-16T09:27:35;95530.16;;;24.71;27.02
7990;BME280;4040;42.848;23.034;2024-02-16T09:30:08;95524.94;;;25.51;25.94
7990;BME280;4040;42.848;23.034;2024-02-16T09:32:39;95532.97;;;25.20;25.78
7990;BME280;4040;42.848;23.034;2024-02-16T09:35:08;95523.94;;;25.19;26.82
7990;BME280;4040;42.848;23.034;2024-02-16T09:37:35;95506.16;;;24.19;27.87
7990;BME280;4040;42.848;23.034;2024-02-16T09:40:04;95521.44;;;25.36;26.74
7990;BME280;4040;42.848;23.034;2024-02-16T09:42:33;95495.50;;;25.13;25.91
7990;BME280;4040;42.848;23.034;2024-02-16T09:45:05;95532.81;;;24.80;26.65
7990;BME280;4040;42.848;23.034;2024-02-16T09:47:34;95527.22;;;24.22;27.29
7990;BME280;4040;42.848;23.034;2024-02-16T09:50:04;95518.53;;;24.96;26.57
7990;BME280;4040;42.848;23.034;2024-02-16T09:52:31;95521.38;;;25.01;26.48
7990;BME280;4040;42.848;23.034;2024-02-16T09:54:59;95517.97;;;25.06;26.90
7990;BME280;4040;42.848;23.034;2024-02-16T09:57:27;95512.97;;;23.62;27.83
7990;BME280;4040;42.848;23.034;2024-02-16T09:59:54;95495.78;;;22.10;29.40
7990;BME280;4040;42.848;23.034;2024-02-16T10:02:22;95507.06;;;24.01;28.02
7990;BME280;4040;42.848;23.034;2024-02-16T10:04:49;95509.63;;;23.81;27.56
7990;BME280;4040;42.848;23.034;2024-02-16T10:07:30;95500.81;;;25.17;27.36
7990;BME280;4040;42.848;23.034;2024-02-16T10:09:58;95506.72;;;24.23;27.16
7990;BME280;4040;42.848;23.034;2024-02-16T10:12:25;95498.06;;;23.54;27.81
7990;BME280;4040;42.848;23.034;2024-02-16T10:14:55;95494.81;;;23.79;27.87
7990;BME280;4040;42.848;23.034;2024-02-16T10:17:24;95492.19;;;25.09;27.17
7990;BME280;4040;42.848;23.034;2024-02-16T10:19:59;95495.81;;;25.50;26.82
7990;BME280;4040;42.848;23.034;2024-02-16T10:22:30;95481.47;;;25.86;25.87
7990;BME280;4040;42.848;23.034;2024-02-16T10:25:07;95484.63;;;24.46;27.56
7990;BME280;4040;42.848;23.034;2024-02-16T10:27:37;95485.19;;;23.37;28.30
7990;BME280;4040;42.848;23.034;2024-02-16T10:30:07;95464.81;;;24.57;27.53
7990;BME280;4040;42.848;23.034;2024-02-16T10:32:38;95474.53;;;24.87;27.14
7990;BME280;4040;42.848;23.034;2024-02-16T10:35:07;95467.66;;;26.26;26.06
7990;BME280;4040;42.848;23.034;2024-02-16T10:37:38;95471.00;;;25.90;26.11
7990;BME280;4040;42.848;23.034;2024-02-16T10:40:08;95481.66;;;24.35;27.10
7990;BME280;4040;42.848;23.034;2024-02-16T10:42:37;95479.88;;;23.33;28.62
7990;BME280;4040;42.848;23.034;2024-02-16T10:45:06;95471.91;;;25.27;27.26
7990;BME280;4040;42.848;23.034;2024-02-16T10:47:34;95464.09;;;23.80;27.73
7990;BME280;4040;42.848;23.034;2024-02-16T10:50:02;95458.13;;;22.79;29.25
7990;BME280;4040;42.848;23.034;2024-02-16T10:52:31;95462.84;;;24.05;29.06
7990;BME280;4040;42.848;23.034;2024-02-16T10:55:00;95451.28;;;24.88;27.98
7990;BME280;4040;42.848;23.034;2024-02-16T10:57:29;95445.22;;;25.93;26.48
7990;BME280;4040;42.848;23.034;2024-02-16T10:59:57;95438.22;;;26.73;25.59
7990;BME280;4040;42.848;23.034;2024-02-16T11:02:24;95448.16;;;26.35;25.79
7990;BME280;4040;42.848;23.034;2024-02-16T11:04:53;95440.19;;;26.98;25.53
7990;BME280;4040;42.848;23.034;2024-02-16T11:07:20;95440.09;;;27.18;24.88
7990;BME280;4040;42.848;23.034;2024-02-16T11:09:47;95427.88;;;25.92;26.18
7990;BME280;4040;42.848;23.034;2024-02-16T11:12:18;95428.53;;;25.42;26.95
7990;BME280;4040;42.848;23.034;2024-02-16T11:14:47;95434.19;;;24.84;27.07
7990;BME280;4040;42.848;23.034;2024-02-16T11:17:20;95430.38;;;24.81;27.79
7990;BME280;4040;42.848;23.034;2024-02-16T11:19:49;95427.97;;;23.50;28.27
7990;BME280;4040;42.848;23.034;2024-02-16T11:22:17;95415.69;;;24.41;27.33
7990;BME280;4040;42.848;23.034;2024-02-16T11:24:46;95425.19;;;23.73;29.12
7990;BME280;4040;42.848;23.034;2024-02-16T11:27:13;95430.31;;;24.18;28.28
7990;BME280;4040;42.848;23.034;2024-02-16T11:29:46;95417.88;;;24.51;27.71
7990;BME280;4040;42.848;23.034;2024-02-16T11:32:14;95423.13;;;22.56;29.72
7990;BME280;4040;42.848;23.034;2024-02-16T11:34:41;95415.97;;;24.14;29.43
7990;BME280;4040;42.848;23.034;2024-02-16T11:37:09;95420.16;;;24.09;28.48
7990;BME280;4040;42.848;23.034;2024-02-16T11:39:36;95412.16;;;23.12;29.25
7990;BME280;4040;42.848;23.034;2024-02-16T11:42:06;95408.19;;;23.98;29.57
7990;BME280;4040;42.848;23.034;2024-02-16T11:44:36;95405.81;;;23.53;28.80
7990;BME280;4040;42.848;23.034;2024-02-16T11:47:07;95415.03;;;24.17;28.16
7990;BME280;4040;42.848;23.034;2024-02-16T11:49:38;95412.03;;;24.93;27.47
7990;BME280;4040;42.848;23.034;2024-02-16T11:52:07;95401.47;;;26.62;26.09
7990;BME280;4040;42.848;23.034;2024-02-16T11:54:35;95396.34;;;27.75;25.36
7990;BME280;4040;42.848;23.034;2024-02-16T11:57:03;95398.19;;;29.32;24.08
7990;BME280;4040;42.848;23.034;2024-02-16T11:59:31;95379.38;;;28.48;24.14
7990;BME280;4040;42.848;23.034;2024-02-16T12:01:59;95395.66;;;24.55;27.95
7990;BME280;4040;42.848;23.034;2024-02-16T12:04:28;95395.59;;;24.84;27.24
7990;BME280;4040;42.848;23.034;2024-02-16T12:06:57;95382.91;;;24.72;27.87
7990;BME280;4040;42.848;23.034;2024-02-16T12:09:25;95398.03;;;23.28;29.29
7990;BME280;4040;42.848;23.034;2024-02-16T12:11:53;95395.59;;;23.68;28.71
7990;BME280;4040;42.848;23.034;2024-02-16T12:14:22;95368.41;;;21.21;31.17
7990;BME280;4040;42.848;23.034;2024-02-16T12:16:51;95384.28;;;21.80;31.36
7990;BME280;4040;42.848;23.034;2024-02-16T12:19:19;95386.91;;;22.25;31.03
7990;BME280;4040;42.848;23.034;2024-02-16T12:21:51;95383.69;;;21.76;31.80
7990;BME280;4040;42.848;23.034;2024-02-16T12:24:18;95392.81;;;20.32;34.30
7990;BME280;4040;42.848;23.034;2024-02-16T12:26:46;95388.81;;;18.20;36.94
7990;BME280;4040;42.848;23.034;2024-02-16T12:29:14;95389.13;;;16.16;39.99
7990;BME280;4040;42.848;23.034;2024-02-16T12:31:43;95394.81;;;15.08;42.75
7990;BME280;4040;42.848;23.034;2024-02-16T12:34:11;95400.91;;;14.47;45.64
7990;BME280;4040;42.848;23.034;2024-02-16T12:36:39;95389.09;;;14.07;47.79
7990;BME280;4040;42.848;23.034;2024-02-16T12:39:08;95382.72;;;14.21;47.76
7990;BME280;4040;42.848;23.034;2024-02-16T12:41:38;95377.19;;;13.75;48.14
7990;BME280;4040;42.848;23.034;2024-02-16T12:44:08;95390.88;;;13.61;48.31
7990;BME280;4040;42.848;23.034;2024-02-16T12:46:36;95388.44;;;13.40;48.92
7990;BME280;4040;42.848;23.034;2024-02-16T12:49:04;95385.47;;;13.31;50.02
7990;BME280;4040;42.848;23.034;2024-02-16T12:51:32;95379.91;;;13.08;49.83
7990;BME280;4040;42.848;23.034;2024-02-16T12:54:00;95378.28;;;12.77;50.78
7990;BME280;4040;42.848;23.034;2024-02-16T12:56:31;95367.06;;;12.38;52.88
7990;BME280;4040;42.848;23.034;2024-02-16T12:58:58;95386.88;;;12.65;54.08
7990;BME280;4040;42.848;23.034;2024-02-16T13:01:26;95382.59;;;12.71;51.95
7990;BME280;4040;42.848;23.034;2024-02-16T13:03:53;95387.56;;;12.76;52.36
7990;BME280;4040;42.848;23.034;2024-02-16T13:06:21;95375.09;;;12.89;52.37
7990;BME280;4040;42.848;23.034;2024-02-16T13:08:48;95377.16;;;13.15;52.25
7990;BME280;4040;42.848;23.034;2024-02-16T13:11:16;95375.69;;;13.07;52.45
7990;BME280;4040;42.848;23.034;2024-02-16T13:13:45;95374.28;;;12.92;52.41